sensor_id;sensor_type;location;lat;lon;timestamp;P1;durP1;ratioP1;P2;durP2;ratioP2
14268;SDS011;7218;51.480;7.006;2024-01-06T00:00:46;13.02;;;10.75;;
14268;SDS011;7218;51.480;7.006;2024-01-06T00:03:15;14.82;;;11.35;;
14268;SDS011;7218;51.480;7.006;2024-01-06T00:05:42;12.60;;;11.23;;
14268;SDS011;7218;51.480;7.006;2024-01-06T00:08:08;13.63;;;11.32;;
14268;SDS011;7218;51.480;7.006;2024-01-06T00:10:35;14.07;;;11.52;;
14268;SDS011;7218;51.480;7.006;2024-01-06T00:13:01;16.05;;;11.57;;
14268;SDS011;7218;51.480;7.006;2024-01-06T00:15:27;13.80;;;11.45;;
14268;SDS011;7218;51.480;7.006;2024-01-06T00:17:54;13.73;;;11.35;;
14268;SDS011;7218;51.480;7.006;2024-01-06T00:20:21;13.75;;;10.85;;
14268;SDS011;7218;51.480;7.006;2024-01-06T00:22:48;16.25;;;10.73;;
14268;SDS011;7218;51.480;7.006;2024-01-06T00:25:15;13.32;;;10.90;;
14268;SDS011;7218;51.480;7.006;2024-01-06T00:27:41;13.45;;;10.32;;
14268;SDS011;7218;51.480;7.006;2024-01-06T00:30:08;16.08;;;10.93;;
14268;SDS011;7218;51.480;7.006;2024-01-06T00:32:35;15.05;;;11.48;;
14268;SDS011;7218;51.480;7.006;2024-01-06T00:35:01;14.20;;;10.60;;
14268;SDS011;7218;51.480;7.006;2024-01-06T00:37:30;14.35;;;11.07;;
14268;SDS011;7218;51.480;7.006;2024-01-06T00:39:56;14.98;;;11.25;;
14268;SDS011;7218;51.480;7.006;2024-01-06T00:42:23;13.55;;;11.18;;
14268;SDS011;7218;51.480;7.006;2024-01-06T00:44:49;12.82;;;10.73;;
14268;SDS011;7218;51.480;7.006;2024-01-06T00:47:15;15.48;;;11.13;;
14268;SDS011;7218;51.480;7.006;2024-01-06T00:49:42;13.80;;;11.60;;
14268;SDS011;7218;51.480;7.006;2024-01-06T00:52:08;14.30;;;11.63;;
14268;SDS011;7218;51.480;7.006;2024-01-06T00:54:36;16.38;;;11.93;;
14268;SDS011;7218;51.480;7.006;2024-01-06T00:57:03;17.77;;;11.85;;
14268;SDS011;7218;51.480;7.006;2024-01-06T00:59:30;18.52;;;13.35;;
14268;SDS011;7218;51.480;7.006;2024-01-06T01:01:56;16.27;;;12.98;;
14268;SDS011;7218;51.480;7.006;2024-01-06T01:04:23;16.40;;;11.90;;
14268;SDS011;7218;51.480;7.006;2024-01-06T01:06:49;17.15;;;13.38;;
14268;SDS011;7218;51.480;7.006;2024-01-06T01:09:16;16.95;;;13.40;;
14268;SDS011;7218;51.480;7.006;2024-01-06T01:11:44;16.50;;;13.75;;
14268;SDS011;7218;51.480;7.006;2024-01-06T01:14:10;16.40;;;13.38;;
14268;SDS011;7218;51.480;7.006;2024-01-06T01:16:37;15.70;;;12.80;;
14268;SDS011;7218;51.480;7.006;2024-01-06T01:19:03;15.90;;;12.57;;
14268;SDS011;7218;51.480;7.006;2024-01-06T01:21:30;16.05;;;12.57;;
14268;SDS011;7218;51.480;7.006;2024-01-06T01:23:56;15.40;;;12.52;;
14268;SDS011;7218;51.480;7.006;2024-01-06T01:26:23;16.48;;;13.65;;
14268;SDS011;7218;51.480;7.006;2024-01-06T01:28:50;18.15;;;14.32;;
14268;SDS011;7218;51.480;7.006;2024-01-06T01:31:17;18.98;;;14.77;;
14268;SDS011;7218;51.480;7.006;2024-01-06T01:33:43;19.88;;;15.35;;
14268;SDS011;7218;51.480;7.006;2024-01-06T01:36:10;19.15;;;15.18;;
14268;SDS011;7218;51.480;7.006;2024-01-06T01:38:36;21.83;;;16.13;;
14268;SDS011;7218;51.480;7.006;2024-01-06T01:41:03;18.90;;;15.23;;
14268;SDS011;7218;51.480;7.006;2024-01-06T01:43:29;22.33;;;16.00;;
14268;SDS011;7218;51.480;7.006;2024-01-06T01:45:58;21.70;;;16.30;;
14268;SDS011;7218;51.480;7.006;2024-01-06T01:48:24;21.27;;;16.60;;
14268;SDS011;7218;51.480;7.006;2024-01-06T01:50:51;22.42;;;17.00;;
14268;SDS011;7218;51.480;7.006;2024-01-06T01:53:19;20.70;;;16.55;;
14268;SDS011;7218;51.480;7.006;2024-01-06T01:55:46;22.00;;;16.95;;
14268;SDS011;7218;51.480;7.006;2024-01-06T01:58:14;21.55;;;17.00;;
14268;SDS011;7218;51.480;7.006;2024-01-06T02:00:42;21.55;;;16.52;;
14268;SDS011;7218;51.480;7.006;2024-01-06T02:03:10;23.05;;;16.90;;
14268;SDS011;7218;51.480;7.006;2024-01-06T02:05:38;23.00;;;17.27;;
14268;SDS011;7218;51.480;7.006;2024-01-06T02:08:05;22.65;;;17.65;;
14268;SDS011;7218;51.480;7.006;2024-01-06T02:10:32;25.27;;;17.50;;
14268;SDS011;7218;51.480;7.006;2024-01-06T02:13:06;24.00;;;17.45;;
14268;SDS011;7218;51.480;7.006;2024-01-06T02:15:34;22.80;;;17.20;;
14268;SDS011;7218;51.480;7.006;2024-01-06T02:18:00;23.73;;;17.95;;
14268;SDS011;7218;51.480;7.006;2024-01-06T02:20:28;23.20;;;17.13;;
14268;SDS011;7218;51.480;7.006;2024-01-06T02:22:58;22.67;;;17.80;;
14268;SDS011;7218;51.480;7.006;2024-01-06T02:25:25;24.10;;;17.75;;
14268;SDS011;7218;51.480;7.006;2024-01-06T02:27:52;25.30;;;18.42;;
14268;SDS011;7218;51.480;7.006;2024-01-06T02:30:19;23.52;;;17.60;;
14268;SDS011;7218;51.480;7.006;2024-01-06T02:32:45;21.95;;;17.15;;
14268;SDS011;7218;51.480;7.006;2024-01-06T02:35:11;23.23;;;17.25;;
14268;SDS011;7218;51.480;7.006;2024-01-06T02:37:38;23.85;;;18.23;;
14268;SDS011;7218;51.480;7.006;2024-01-06T02:40:06;24.73;;;18.38;;
14268;SDS011;7218;51.480;7.006;2024-01-06T02:42:34;24.05;;;17.83;;
14268;SDS011;7218;51.480;7.006;2024-01-06T02:45:00;22.75;;;17.35;;
14268;SDS011;7218;51.480;7.006;2024-01-06T02:47:27;25.15;;;17.20;;
14268;SDS011;7218;51.480;7.006;2024-01-06T02:49:53;24.98;;;17.35;;
14268;SDS011;7218;51.480;7.006;2024-01-06T02:52:20;24.27;;;17.63;;
14268;SDS011;7218;51.480;7.006;2024-01-06T02:54:47;23.58;;;17.52;;
14268;SDS011;7218;51.480;7.006;2024-01-06T02:57:15;24.95;;;17.70;;
14268;SDS011;7218;51.480;7.006;2024-01-06T02:59:42;23.02;;;16.80;;
14268;SDS011;7218;51.480;7.006;2024-01-06T03:02:08;20.13;;;15.63;;
14268;SDS011;7218;51.480;7.006;2024-01-06T03:04:35;18.75;;;14.38;;
14268;SDS011;7218;51.480;7.006;2024-01-06T03:07:01;20.05;;;14.95;;
14268;SDS011;7218;51.480;7.006;2024-01-06T03:09:28;23.17;;;15.15;;
14268;SDS011;7218;51.480;7.006;2024-01-06T03:11:54;20.73;;;14.95;;
14268;SDS011;7218;51.480;7.006;2024-01-06T03:14:22;20.98;;;15.05;;
14268;SDS011;7218;51.480;7.006;2024-01-06T03:16:49;19.92;;;14.48;;
14268;SDS011;7218;51.480;7.006;2024-01-06T03:19:15;20.13;;;14.48;;
14268;SDS011;7218;51.480;7.006;2024-01-06T03:21:42;16.88;;;12.38;;
14268;SDS011;7218;51.480;7.006;2024-01-06T03:24:08;16.42;;;12.20;;
14268;SDS011;7218;51.480;7.006;2024-01-06T03:26:35;15.15;;;11.30;;
14268;SDS011;7218;51.480;7.006;2024-01-06T03:29:01;15.23;;;10.93;;
14268;SDS011;7218;51.480;7.006;2024-01-06T03:31:29;16.30;;;10.75;;
14268;SDS011;7218;51.480;7.006;2024-01-06T03:33:56;16.83;;;10.98;;
14268;SDS011;7218;51.480;7.006;2024-01-06T03:36:23;13.70;;;10.18;;
14268;SDS011;7218;51.480;7.006;2024-01-06T03:38:50;15.02;;;10.57;;
14268;SDS011;7218;51.480;7.006;2024-01-06T03:41:16;15.00;;;10.18;;
14268;SDS011;7218;51.480;7.006;2024-01-06T03:43:43;14.70;;;10.73;;
14268;SDS011;7218;51.480;7.006;2024-01-06T03:46:09;15.30;;;10.82;;
14268;SDS011;7218;51.480;7.006;2024-01-06T03:48:38;14.75;;;10.02;;
14268;SDS011;7218;51.480;7.006;2024-01-06T03:51:06;14.35;;;10.55;;
14268;SDS011;7218;51.480;7.006;2024-01-06T03:53:33;16.02;;;10.85;;
14268;SDS011;7218;51.480;7.006;2024-01-06T03:55:59;13.73;;;10.10;;
14268;SDS011;7218;51.480;7.006;2024-01-06T03:58:26;11.90;;;8.75;;
14268;SDS011;7218;51.480;7.006;2024-01-06T04:00:52;11.45;;;8.10;;
14268;SDS011;7218;51.480;7.006;2024-01-06T04:03:19;10.60;;;8.15;;
14268;SDS011;7218;51.480;7.006;2024-01-06T04:05:47;9.82;;;7.70;;
14268;SDS011;7218;51.480;7.006;2024-01-06T04:08:13;10.82;;;7.85;;
14268;SDS011;7218;51.480;7.006;2024-01-06T04:10:40;11.93;;;8.30;;
14268;SDS011;7218;51.480;7.006;2024-01-06T04:13:08;11.90;;;8.30;;
14268;SDS011;7218;51.480;7.006;2024-01-06T04:15:34;11.35;;;8.50;;
14268;SDS011;7218;51.480;7.006;2024-01-06T04:18:01;13.50;;;8.55;;
14268;SDS011;7218;51.480;7.006;2024-01-06T04:20:29;12.02;;;8.52;;
14268;SDS011;7218;51.480;7.006;2024-01-06T04:22:56;12.35;;;8.90;;
14268;SDS011;7218;51.480;7.006;2024-01-06T04:25:23;11.70;;;8.80;;
14268;SDS011;7218;51.480;7.006;2024-01-06T04:27:49;12.90;;;9.23;;
14268;SDS011;7218;51.480;7.006;2024-01-06T04:30:16;13.02;;;9.50;;
14268;SDS011;7218;51.480;7.006;2024-01-06T04:32:44;13.00;;;9.13;;
14268;SDS011;7218;51.480;7.006;2024-01-06T04:35:13;14.07;;;9.68;;
14268;SDS011;7218;51.480;7.006;2024-01-06T04:37:40;12.23;;;9.25;;
14268;SDS011;7218;51.480;7.006;2024-01-06T04:40:08;13.00;;;9.20;;
14268;SDS011;7218;51.480;7.006;2024-01-06T04:42:36;12.15;;;8.63;;
14268;SDS011;7218;51.480;7.006;2024-01-06T04:45:02;14.43;;;10.07;;
14268;SDS011;7218;51.480;7.006;2024-01-06T04:47:29;13.00;;;9.30;;
14268;SDS011;7218;51.480;7.006;2024-01-06T04:49:56;11.93;;;9.02;;
14268;SDS011;7218;51.480;7.006;2024-01-06T04:52:23;13.00;;;9.35;;
14268;SDS011;7218;51.480;7.006;2024-01-06T04:54:49;14.63;;;9.70;;
14268;SDS011;7218;51.480;7.006;2024-01-06T04:57:17;13.25;;;9.05;;
14268;SDS011;7218;51.480;7.006;2024-01-06T04:59:44;11.93;;;8.95;;
14268;SDS011;7218;51.480;7.006;2024-01-06T05:02:11;12.85;;;9.07;;
14268;SDS011;7218;51.480;7.006;2024-01-06T05:04:37;12.13;;;8.35;;
14268;SDS011;7218;51.480;7.006;2024-01-06T05:07:04;13.90;;;8.88;;
14268;SDS011;7218;51.480;7.006;2024-01-06T05:09:30;11.95;;;8.52;;
14268;SDS011;7218;51.480;7.006;2024-01-06T05:11:57;11.32;;;8.48;;
14268;SDS011;7218;51.480;7.006;2024-01-06T05:14:24;12.73;;;9.02;;
14268;SDS011;7218;51.480;7.006;2024-01-06T05:16:51;12.55;;;8.98;;
14268;SDS011;7218;51.480;7.006;2024-01-06T05:19:18;12.63;;;9.23;;
14268;SDS011;7218;51.480;7.006;2024-01-06T05:21:46;11.50;;;8.15;;
14268;SDS011;7218;51.480;7.006;2024-01-06T05:24:13;12.82;;;9.38;;
14268;SDS011;7218;51.480;7.006;2024-01-06T05:26:39;12.88;;;9.00;;
14268;SDS011;7218;51.480;7.006;2024-01-06T05:29:06;12.43;;;8.90;;
14268;SDS011;7218;51.480;7.006;2024-01-06T05:31:34;11.73;;;8.50;;
14268;SDS011;7218;51.480;7.006;2024-01-06T05:34:00;12.45;;;8.80;;
14268;SDS011;7218;51.480;7.006;2024-01-06T05:36:27;12.85;;;8.85;;
14268;SDS011;7218;51.480;7.006;2024-01-06T05:38:53;10.55;;;7.70;;
14268;SDS011;7218;51.480;7.006;2024-01-06T05:41:20;11.68;;;8.25;;
14268;SDS011;7218;51.480;7.006;2024-01-06T05:43:46;11.63;;;8.40;;
14268;SDS011;7218;51.480;7.006;2024-01-06T05:46:19;10.85;;;8.10;;
14268;SDS011;7218;51.480;7.006;2024-01-06T05:48:48;11.40;;;7.97;;
14268;SDS011;7218;51.480;7.006;2024-01-06T05:51:14;9.38;;;7.20;;
14268;SDS011;7218;51.480;7.006;2024-01-06T05:53:41;10.00;;;7.72;;
14268;SDS011;7218;51.480;7.006;2024-01-06T05:56:08;10.13;;;7.70;;
14268;SDS011;7218;51.480;7.006;2024-01-06T05:58:34;9.15;;;7.15;;
14268;SDS011;7218;51.480;7.006;2024-01-06T06:01:02;9.90;;;7.45;;
14268;SDS011;7218;51.480;7.006;2024-01-06T06:03:28;8.68;;;6.88;;
14268;SDS011;7218;51.480;7.006;2024-01-06T06:05:56;9.77;;;6.72;;
14268;SDS011;7218;51.480;7.006;2024-01-06T06:08:23;9.13;;;6.90;;
14268;SDS011;7218;51.480;7.006;2024-01-06T06:10:49;10.65;;;7.70;;
14268;SDS011;7218;51.480;7.006;2024-01-06T06:13:26;9.57;;;7.53;;
14268;SDS011;7218;51.480;7.006;2024-01-06T06:15:52;11.10;;;8.02;;
14268;SDS011;7218;51.480;7.006;2024-01-06T06:18:19;10.48;;;8.13;;
14268;SDS011;7218;51.480;7.006;2024-01-06T06:20:46;9.88;;;7.45;;
14268;SDS011;7218;51.480;7.006;2024-01-06T06:23:14;11.25;;;7.97;;
14268;SDS011;7218;51.480;7.006;2024-01-06T06:25:40;10.88;;;8.05;;
14268;SDS011;7218;51.480;7.006;2024-01-06T06:28:07;11.57;;;8.57;;
14268;SDS011;7218;51.480;7.006;2024-01-06T06:30:34;12.10;;;8.73;;
14268;SDS011;7218;51.480;7.006;2024-01-06T06:33:01;13.13;;;9.38;;
14268;SDS011;7218;51.480;7.006;2024-01-06T06:35:27;12.77;;;9.60;;
14268;SDS011;7218;51.480;7.006;2024-01-06T06:37:54;16.05;;;10.02;;
14268;SDS011;7218;51.480;7.006;2024-01-06T06:40:22;13.90;;;9.95;;
14268;SDS011;7218;51.480;7.006;2024-01-06T06:42:48;14.23;;;10.05;;
14268;SDS011;7218;51.480;7.006;2024-01-06T06:45:15;14.80;;;11.25;;
14268;SDS011;7218;51.480;7.006;2024-01-06T06:47:41;14.98;;;10.60;;
14268;SDS011;7218;51.480;7.006;2024-01-06T06:50:08;19.17;;;11.63;;
14268;SDS011;7218;51.480;7.006;2024-01-06T06:52:35;15.85;;;11.55;;
14268;SDS011;7218;51.480;7.006;2024-01-06T06:55:01;18.23;;;11.70;;
14268;SDS011;7218;51.480;7.006;2024-01-06T06:57:30;19.02;;;12.00;;
14268;SDS011;7218;51.480;7.006;2024-01-06T06:59:57;19.85;;;12.85;;
14268;SDS011;7218;51.480;7.006;2024-01-06T07:02:25;16.55;;;12.05;;
14268;SDS011;7218;51.480;7.006;2024-01-06T07:04:51;17.67;;;12.27;;
14268;SDS011;7218;51.480;7.006;2024-01-06T07:07:18;15.88;;;11.65;;
14268;SDS011;7218;51.480;7.006;2024-01-06T07:09:45;17.15;;;11.75;;
14268;SDS011;7218;51.480;7.006;2024-01-06T07:12:12;17.73;;;11.48;;
14268;SDS011;7218;51.480;7.006;2024-01-06T07:14:39;17.17;;;11.63;;
14268;SDS011;7218;51.480;7.006;2024-01-06T07:17:06;14.73;;;10.38;;
14268;SDS011;7218;51.480;7.006;2024-01-06T07:19:34;16.27;;;11.00;;
14268;SDS011;7218;51.480;7.006;2024-01-06T07:22:01;15.43;;;10.60;;
14268;SDS011;7218;51.480;7.006;2024-01-06T07:24:27;16.02;;;11.27;;
14268;SDS011;7218;51.480;7.006;2024-01-06T07:26:54;15.63;;;11.15;;
14268;SDS011;7218;51.480;7.006;2024-01-06T07:29:20;16.52;;;10.43;;
14268;SDS011;7218;51.480;7.006;2024-01-06T07:31:48;15.65;;;9.90;;
14268;SDS011;7218;51.480;7.006;2024-01-06T07:34:14;15.60;;;10.20;;
14268;SDS011;7218;51.480;7.006;2024-01-06T07:36:41;16.10;;;10.25;;
14268;SDS011;7218;51.480;7.006;2024-01-06T07:39:07;18.30;;;10.23;;
14268;SDS011;7218;51.480;7.006;2024-01-06T07:41:34;17.15;;;10.68;;
14268;SDS011;7218;51.480;7.006;2024-01-06T07:44:00;17.23;;;11.20;;
14268;SDS011;7218;51.480;7.006;2024-01-06T07:46:27;19.95;;;11.27;;
14268;SDS011;7218;51.480;7.006;2024-01-06T07:48:56;18.35;;;11.25;;
14268;SDS011;7218;51.480;7.006;2024-01-06T07:51:22;22.25;;;12.13;;
14268;SDS011;7218;51.480;7.006;2024-01-06T07:53:50;20.08;;;11.98;;
14268;SDS011;7218;51.480;7.006;2024-01-06T07:56:16;18.98;;;11.40;;
14268;SDS011;7218;51.480;7.006;2024-01-06T07:58:43;19.38;;;12.07;;
14268;SDS011;7218;51.480;7.006;2024-01-06T08:01:09;19.33;;;12.02;;
14268;SDS011;7218;51.480;7.006;2024-01-06T08:03:36;19.23;;;11.93;;
14268;SDS011;7218;51.480;7.006;2024-01-06T08:06:04;18.33;;;11.80;;
14268;SDS011;7218;51.480;7.006;2024-01-06T08:08:31;17.85;;;12.02;;
14268;SDS011;7218;51.480;7.006;2024-01-06T08:10:57;19.83;;;12.02;;
14268;SDS011;7218;51.480;7.006;2024-01-06T08:13:24;19.38;;;11.63;;
14268;SDS011;7218;51.480;7.006;2024-01-06T08:15:50;16.60;;;10.88;;
14268;SDS011;7218;51.480;7.006;2024-01-06T08:18:17;17.52;;;11.02;;
14268;SDS011;7218;51.480;7.006;2024-01-06T08:20:44;18.23;;;11.65;;
14268;SDS011;7218;51.480;7.006;2024-01-06T08:23:14;18.90;;;11.80;;
14268;SDS011;7218;51.480;7.006;2024-01-06T08:25:41;17.67;;;11.57;;
14268;SDS011;7218;51.480;7.006;2024-01-06T08:28:08;19.00;;;11.52;;
14268;SDS011;7218;51.480;7.006;2024-01-06T08:30:34;17.15;;;10.05;;
14268;SDS011;7218;51.480;7.006;2024-01-06T08:33:01;19.00;;;10.50;;
14268;SDS011;7218;51.480;7.006;2024-01-06T08:35:27;16.05;;;10.05;;
14268;SDS011;7218;51.480;7.006;2024-01-06T08:37:54;18.20;;;10.15;;
14268;SDS011;7218;51.480;7.006;2024-01-06T08:40:21;15.27;;;9.80;;
14268;SDS011;7218;51.480;7.006;2024-01-06T08:42:48;17.90;;;9.40;;
14268;SDS011;7218;51.480;7.006;2024-01-06T08:45:15;15.63;;;8.63;;
14268;SDS011;7218;51.480;7.006;2024-01-06T08:47:41;15.85;;;9.32;;
14268;SDS011;7218;51.480;7.006;2024-01-06T08:50:08;11.18;;;7.88;;
14268;SDS011;7218;51.480;7.006;2024-01-06T08:52:35;12.85;;;8.45;;
14268;SDS011;7218;51.480;7.006;2024-01-06T08:55:01;15.15;;;8.63;;
14268;SDS011;7218;51.480;7.006;2024-01-06T08:57:29;14.98;;;9.38;;
14268;SDS011;7218;51.480;7.006;2024-01-06T08:59:56;14.40;;;8.68;;
14268;SDS011;7218;51.480;7.006;2024-01-06T09:02:23;13.98;;;8.50;;
14268;SDS011;7218;51.480;7.006;2024-01-06T09:04:50;14.85;;;9.40;;
14268;SDS011;7218;51.480;7.006;2024-01-06T09:07:17;14.57;;;8.85;;
14268;SDS011;7218;51.480;7.006;2024-01-06T09:09:43;14.60;;;9.00;;
14268;SDS011;7218;51.480;7.006;2024-01-06T09:12:10;13.43;;;8.82;;
14268;SDS011;7218;51.480;7.006;2024-01-06T09:14:38;14.35;;;9.18;;
14268;SDS011;7218;51.480;7.006;2024-01-06T09:17:05;13.68;;;8.57;;
14268;SDS011;7218;51.480;7.006;2024-01-06T09:19:31;13.73;;;8.57;;
14268;SDS011;7218;51.480;7.006;2024-01-06T09:21:59;14.23;;;8.77;;
14268;SDS011;7218;51.480;7.006;2024-01-06T09:24:25;15.52;;;10.00;;
14268;SDS011;7218;51.480;7.006;2024-01-06T09:26:52;14.05;;;9.00;;
14268;SDS011;7218;51.480;7.006;2024-01-06T09:29:18;15.30;;;9.68;;
14268;SDS011;7218;51.480;7.006;2024-01-06T09:31:46;15.60;;;8.95;;
14268;SDS011;7218;51.480;7.006;2024-01-06T09:34:13;14.25;;;9.38;;
14268;SDS011;7218;51.480;7.006;2024-01-06T09:36:39;15.68;;;8.65;;
14268;SDS011;7218;51.480;7.006;2024-01-06T09:39:06;13.73;;;8.27;;
14268;SDS011;7218;51.480;7.006;2024-01-06T09:41:33;12.90;;;8.95;;
14268;SDS011;7218;51.480;7.006;2024-01-06T09:43:59;14.07;;;9.10;;
14268;SDS011;7218;51.480;7.006;2024-01-06T09:46:27;14.05;;;8.95;;
14268;SDS011;7218;51.480;7.006;2024-01-06T09:48:56;14.38;;;8.93;;
14268;SDS011;7218;51.480;7.006;2024-01-06T09:51:25;15.65;;;8.98;;
14268;SDS011;7218;51.480;7.006;2024-01-06T09:53:52;13.63;;;8.68;;
14268;SDS011;7218;51.480;7.006;2024-01-06T09:56:23;10.68;;;7.88;;
14268;SDS011;7218;51.480;7.006;2024-01-06T09:58:51;11.65;;;7.72;;
14268;SDS011;7218;51.480;7.006;2024-01-06T10:01:17;12.07;;;7.93;;
14268;SDS011;7218;51.480;7.006;2024-01-06T10:03:44;11.75;;;7.95;;
14268;SDS011;7218;51.480;7.006;2024-01-06T10:06:13;12.23;;;7.68;;
14268;SDS011;7218;51.480;7.006;2024-01-06T10:08:41;12.02;;;7.50;;
14268;SDS011;7218;51.480;7.006;2024-01-06T10:11:08;11.88;;;7.82;;
14268;SDS011;7218;51.480;7.006;2024-01-06T10:13:35;12.25;;;8.25;;
14268;SDS011;7218;51.480;7.006;2024-01-06T10:16:03;15.13;;;9.60;;
14268;SDS011;7218;51.480;7.006;2024-01-06T10:18:30;14.82;;;9.95;;
14268;SDS011;7218;51.480;7.006;2024-01-06T10:20:57;16.48;;;10.40;;
14268;SDS011;7218;51.480;7.006;2024-01-06T10:23:27;16.58;;;10.85;;
14268;SDS011;7218;51.480;7.006;2024-01-06T10:25:54;16.70;;;9.82;;
14268;SDS011;7218;51.480;7.006;2024-01-06T10:28:21;15.60;;;10.10;;
14268;SDS011;7218;51.480;7.006;2024-01-06T10:30:49;14.43;;;9.90;;
14268;SDS011;7218;51.480;7.006;2024-01-06T10:33:20;15.23;;;10.20;;
14268;SDS011;7218;51.480;7.006;2024-01-06T10:35:48;17.15;;;10.85;;
14268;SDS011;7218;51.480;7.006;2024-01-06T10:38:15;17.35;;;10.77;;
14268;SDS011;7218;51.480;7.006;2024-01-06T10:40:56;16.90;;;10.95;;
14268;SDS011;7218;51.480;7.006;2024-01-06T10:43:24;17.42;;;10.93;;
14268;SDS011;7218;51.480;7.006;2024-01-06T10:45:52;19.63;;;12.10;;
14268;SDS011;7218;51.480;7.006;2024-01-06T10:48:23;17.15;;;11.98;;
14268;SDS011;7218;51.480;7.006;2024-01-06T10:50:50;17.83;;;11.73;;
14268;SDS011;7218;51.480;7.006;2024-01-06T10:53:18;16.92;;;11.18;;
14268;SDS011;7218;51.480;7.006;2024-01-06T10:55:47;19.55;;;12.43;;
14268;SDS011;7218;51.480;7.006;2024-01-06T10:58:17;19.95;;;11.70;;
14268;SDS011;7218;51.480;7.006;2024-01-06T11:00:43;20.35;;;11.68;;
14268;SDS011;7218;51.480;7.006;2024-01-06T11:03:10;18.85;;;11.52;;
14268;SDS011;7218;51.480;7.006;2024-01-06T11:05:38;17.95;;;11.30;;
14268;SDS011;7218;51.480;7.006;2024-01-06T11:08:06;18.67;;;11.40;;
14268;SDS011;7218;51.480;7.006;2024-01-06T11:10:35;17.40;;;11.45;;
14268;SDS011;7218;51.480;7.006;2024-01-06T11:13:08;20.05;;;11.45;;
14268;SDS011;7218;51.480;7.006;2024-01-06T11:15:40;17.65;;;10.85;;
14268;SDS011;7218;51.480;7.006;2024-01-06T11:18:08;19.48;;;10.88;;
14268;SDS011;7218;51.480;7.006;2024-01-06T11:20:35;19.83;;;11.35;;
14268;SDS011;7218;51.480;7.006;2024-01-06T11:23:17;17.58;;;10.93;;
14268;SDS011;7218;51.480;7.006;2024-01-06T11:25:45;17.15;;;11.38;;
14268;SDS011;7218;51.480;7.006;2024-01-06T11:28:12;16.10;;;10.55;;
14268;SDS011;7218;51.480;7.006;2024-01-06T11:30:41;16.15;;;10.63;;
14268;SDS011;7218;51.480;7.006;2024-01-06T11:33:08;15.38;;;10.13;;
14268;SDS011;7218;51.480;7.006;2024-01-06T11:35:36;14.45;;;9.77;;
14268;SDS011;7218;51.480;7.006;2024-01-06T11:38:06;18.08;;;11.13;;
14268;SDS011;7218;51.480;7.006;2024-01-06T11:40:33;16.90;;;11.40;;
14268;SDS011;7218;51.480;7.006;2024-01-06T11:43:02;21.38;;;13.40;;
14268;SDS011;7218;51.480;7.006;2024-01-06T11:45:31;23.52;;;13.90;;
14268;SDS011;7218;51.480;7.006;2024-01-06T11:48:00;22.88;;;12.88;;
14268;SDS011;7218;51.480;7.006;2024-01-06T11:50:28;20.00;;;13.10;;
14268;SDS011;7218;51.480;7.006;2024-01-06T11:52:56;20.17;;;12.57;;
14268;SDS011;7218;51.480;7.006;2024-01-06T11:55:24;19.83;;;12.52;;
14268;SDS011;7218;51.480;7.006;2024-01-06T11:57:53;19.63;;;12.23;;
14268;SDS011;7218;51.480;7.006;2024-01-06T12:00:19;17.08;;;11.02;;
14268;SDS011;7218;51.480;7.006;2024-01-06T12:02:46;15.63;;;10.05;;
14268;SDS011;7218;51.480;7.006;2024-01-06T12:05:14;17.15;;;10.27;;
14268;SDS011;7218;51.480;7.006;2024-01-06T12:07:42;16.13;;;10.20;;
14268;SDS011;7218;51.480;7.006;2024-01-06T12:10:09;16.65;;;9.88;;
14268;SDS011;7218;51.480;7.006;2024-01-06T12:12:37;15.35;;;9.48;;
14268;SDS011;7218;51.480;7.006;2024-01-06T12:15:04;14.32;;;9.20;;
14268;SDS011;7218;51.480;7.006;2024-01-06T12:17:34;14.77;;;9.27;;
14268;SDS011;7218;51.480;7.006;2024-01-06T12:20:01;13.52;;;8.85;;
14268;SDS011;7218;51.480;7.006;2024-01-06T12:22:30;11.68;;;8.63;;
14268;SDS011;7218;51.480;7.006;2024-01-06T12:24:58;14.70;;;9.00;;
14268;SDS011;7218;51.480;7.006;2024-01-06T12:27:24;13.65;;;9.50;;
14268;SDS011;7218;51.480;7.006;2024-01-06T12:29:50;21.88;;;13.68;;
14268;SDS011;7218;51.480;7.006;2024-01-06T12:32:19;20.48;;;12.95;;
14268;SDS011;7218;51.480;7.006;2024-01-06T12:34:45;22.38;;;14.25;;
14268;SDS011;7218;51.480;7.006;2024-01-06T12:37:12;22.52;;;13.20;;
14268;SDS011;7218;51.480;7.006;2024-01-06T12:39:40;20.83;;;12.88;;
14268;SDS011;7218;51.480;7.006;2024-01-06T12:42:07;18.65;;;11.48;;
14268;SDS011;7218;51.480;7.006;2024-01-06T12:44:34;18.20;;;11.95;;
14268;SDS011;7218;51.480;7.006;2024-01-06T12:47:02;17.80;;;11.85;;
14268;SDS011;7218;51.480;7.006;2024-01-06T12:49:29;18.85;;;11.25;;
14268;SDS011;7218;51.480;7.006;2024-01-06T12:51:55;16.67;;;10.13;;
14268;SDS011;7218;51.480;7.006;2024-01-06T12:54:22;18.10;;;11.20;;
14268;SDS011;7218;51.480;7.006;2024-01-06T12:56:49;17.23;;;11.27;;
14268;SDS011;7218;51.480;7.006;2024-01-06T12:59:16;14.93;;;9.80;;
14268;SDS011;7218;51.480;7.006;2024-01-06T13:01:43;15.82;;;9.90;;
14268;SDS011;7218;51.480;7.006;2024-01-06T13:04:10;16.08;;;9.95;;
14268;SDS011;7218;51.480;7.006;2024-01-06T13:06:37;14.95;;;9.73;;
14268;SDS011;7218;51.480;7.006;2024-01-06T13:09:05;17.42;;;9.80;;
14268;SDS011;7218;51.480;7.006;2024-01-06T13:11:32;14.38;;;9.43;;
14268;SDS011;7218;51.480;7.006;2024-01-06T13:14:01;17.77;;;10.13;;
14268;SDS011;7218;51.480;7.006;2024-01-06T13:16:28;22.52;;;11.25;;
14268;SDS011;7218;51.480;7.006;2024-01-06T13:18:54;18.52;;;10.32;;
14268;SDS011;7218;51.480;7.006;2024-01-06T13:21:21;18.92;;;11.07;;
14268;SDS011;7218;51.480;7.006;2024-01-06T13:23:49;15.40;;;9.15;;
14268;SDS011;7218;51.480;7.006;2024-01-06T13:26:15;15.35;;;9.68;;
14268;SDS011;7218;51.480;7.006;2024-01-06T13:28:42;15.50;;;9.20;;
14268;SDS011;7218;51.480;7.006;2024-01-06T13:31:10;18.20;;;9.98;;
14268;SDS011;7218;51.480;7.006;2024-01-06T13:33:36;17.33;;;10.38;;
14268;SDS011;7218;51.480;7.006;2024-01-06T13:36:03;17.45;;;10.70;;
14268;SDS011;7218;51.480;7.006;2024-01-06T13:38:31;17.55;;;10.63;;
14268;SDS011;7218;51.480;7.006;2024-01-06T13:41:01;19.05;;;11.57;;
14268;SDS011;7218;51.480;7.006;2024-01-06T13:43:28;17.20;;;11.35;;
14268;SDS011;7218;51.480;7.006;2024-01-06T13:45:56;21.67;;;11.73;;
14268;SDS011;7218;51.480;7.006;2024-01-06T13:48:23;17.65;;;11.00;;
14268;SDS011;7218;51.480;7.006;2024-01-06T13:50:50;18.60;;;10.98;;
14268;SDS011;7218;51.480;7.006;2024-01-06T13:53:16;18.88;;;11.38;;
14268;SDS011;7218;51.480;7.006;2024-01-06T13:55:43;17.35;;;10.75;;
14268;SDS011;7218;51.480;7.006;2024-01-06T13:58:10;17.98;;;10.02;;
14268;SDS011;7218;51.480;7.006;2024-01-06T14:00:36;19.70;;;10.95;;
14268;SDS011;7218;51.480;7.006;2024-01-06T14:03:03;18.20;;;10.40;;
14268;SDS011;7218;51.480;7.006;2024-01-06T14:05:39;15.80;;;9.90;;
14268;SDS011;7218;51.480;7.006;2024-01-06T14:08:06;15.25;;;10.85;;
14268;SDS011;7218;51.480;7.006;2024-01-06T14:10:32;14.90;;;9.57;;
14268;SDS011;7218;51.480;7.006;2024-01-06T14:12:59;16.48;;;10.73;;
14268;SDS011;7218;51.480;7.006;2024-01-06T14:15:25;16.38;;;9.40;;
14268;SDS011;7218;51.480;7.006;2024-01-06T14:17:52;15.82;;;9.82;;
14268;SDS011;7218;51.480;7.006;2024-01-06T14:20:19;15.93;;;9.82;;
14268;SDS011;7218;51.480;7.006;2024-01-06T14:22:47;16.75;;;9.85;;
14268;SDS011;7218;51.480;7.006;2024-01-06T14:25:14;13.95;;;8.73;;
14268;SDS011;7218;51.480;7.006;2024-01-06T14:27:42;14.63;;;9.02;;
14268;SDS011;7218;51.480;7.006;2024-01-06T14:30:09;15.32;;;9.32;;
14268;SDS011;7218;51.480;7.006;2024-01-06T14:32:36;16.25;;;9.52;;
14268;SDS011;7218;51.480;7.006;2024-01-06T14:35:04;14.43;;;9.57;;
14268;SDS011;7218;51.480;7.006;2024-01-06T14:37:32;17.75;;;9.90;;
14268;SDS011;7218;51.480;7.006;2024-01-06T14:40:00;17.73;;;10.27;;